Time;durP1;ratioP1;P1;durP2;ratioP2;P2;SDS_P1;SDS_P2;PMS_P1;PMS_P2;Temp;Humidity;BMP_temperature;BMP_pressure;BME280_temperature;BME280_humidity;BME280_pressure;Samples;Min_cycle;Max_cycle;Signal;HPM_P1;HPM_P2
2021/06/01 00:01:22;;;;;;;;;;;;;;;11.73;100.00;99304.00;5031616;28;20023;-72
2021/06/01 00:03:49;;;;;;;;;;;;;;;11.55;100.00;99301.47;5053592;28;19925;-72
2021/06/01 00:06:16;;;;;;;;;;;;;;;11.54;100.00;99308.28;5052264;28;19925;-72
2021/06/01 00:08:44;;;;;;;;;;;;;;;11.31;100.00;99311.06;5053743;28;19933;-72
2021/06/01 00:11:11;;;;;;;;;;;;;;;11.10;100.00;99305.78;5053737;28;20423;-72
2021/06/01 00:13:39;;;;;;;;;;;;;;;10.98;100.00;99304.31;5053484;28;19924;-72
2021/06/01 00:16:07;;;;;;;;;;;;;;;11.09;100.00;99300.59;5053680;28;19924;-72
2021/06/01 00:18:34;;;;;;;;;;;;;;;10.85;100.00;99308.91;5052990;28;20023;-72
2021/06/01 00:21:02;;;;;;;;;;;;;;;10.71;100.00;99305.47;5052951;28;20368;-72
2021/06/01 00:23:30;;;;;;;;;;;;;;;10.63;100.00;99309.59;5053605;28;20618;-72
2021/06/01 00:25:57;;;;;;;;;;;;;;;10.51;100.00;99313.72;5053247;28;19948;-72
2021/06/01 00:28:25;;;;;;;;;;;;;;;10.58;100.00;99304.47;5053417;28;20410;-72
2021/06/01 00:31:01;;;;;;;;;;;;;;;10.40;100.00;99312.25;5053233;28;19924;-72
2021/06/01 00:33:28;;;;;;;;;;;;;;;10.28;100.00;99315.59;5053408;28;20027;-72
2021/06/01 00:35:56;;;;;;;;;;;;;;;10.11;100.00;99316.56;5051677;28;19956;-72
2021/06/01 00:38:23;;;;;;;;;;;;;;;10.08;100.00;99312.63;5035187;28;20318;-73
2021/06/01 00:40:50;;;;;;;;;;;;;;;9.95;100.00;99314.28;5051902;28;20016;-73
2021/06/01 00:43:17;;;;;;;;;;;;;;;9.87;100.00;99311.97;5052945;28;19929;-73
2021/06/01 00:45:44;;;;;;;;;;;;;;;9.91;100.00;99312.72;5051740;28;20302;-73
2021/06/01 00:48:12;;;;;;;;;;;;;;;9.72;100.00;99310.53;5052822;28;19928;-73
2021/06/01 00:50:39;;;;;;;;;;;;;;;9.61;100.00;99309.81;5051739;28;20345;-73
2021/06/01 00:53:07;;;;;;;;;;;;;;;9.69;100.00;99316.94;5053002;28;19925;-73
2021/06/01 00:55:34;;;;;;;;;;;;;;;9.70;100.00;99307.34;5051796;28;19925;-73
2021/06/01 00:58:01;;;;;;;;;;;;;;;9.26;100.00;99310.06;5052748;28;19959;-73
2021/06/01 01:03:10;;;;;;;;;;;;;;;9.18;100.00;99309.34;5050367;28;19928;-73
2021/06/01 01:05:43;;;;;;;;;;;;;;;9.11;100.00;99307.41;5051903;28;19932;-73
2021/06/01 01:11:15;;;;;;;;;;;;;;;9.02;100.00;99307.06;5051402;28;19932;-73
2021/06/01 01:13:57;;;;;;;;;;;;;;;8.93;100.00;99315.09;5041640;28;20414;-73
2021/06/01 01:16:26;;;;;;;;;;;;;;;9.02;100.00;99312.63;5051303;28;19924;-73
2021/06/01 01:18:58;;;;;;;;;;;;;;;8.86;100.00;99315.09;5051046;28;20403;-73
2021/06/01 01:21:31;;;;;;;;;;;;;;;8.90;100.00;99310.31;5052483;28;20384;-73
2021/06/01 01:24:15;;;;;;;;;;;;;;;8.65;100.00;99309.63;5052467;28;19986;-73
2021/06/01 01:26:52;;;;;;;;;;;;;;;8.70;100.00;99303.66;5051557;28;20103;-73
2021/06/01 01:29:31;;;;;;;;;;;;;;;8.61;100.00;99299.72;5052026;28;19928;-73
2021/06/01 01:31:59;;;;;;;;;;;;;;;8.68;100.00;99303.25;5052814;28;19968;-73
2021/06/01 01:34:27;;;;;;;;;;;;;;;8.43;100.00;99312.91;5034529;28;19931;-73
2021/06/01 01:36:56;;;;;;;;;;;;;;;8.50;100.00;99322.03;5052170;28;19925;-73
2021/06/01 01:39:24;;;;;;;;;;;;;;;8.56;100.00;99316.81;5052126;28;19986;-73
2021/06/01 01:41:51;;;;;;;;;;;;;;;8.38;100.00;99327.25;5052431;28;20287;-73
2021/06/01 01:44:21;;;;;;;;;;;;;;;8.32;100.00;99324.09;5052224;28;19925;-73
2021/06/01 01:46:58;;;;;;;;;;;;;;;8.29;100.00;99327.69;5052059;28;19951;-73
2021/06/01 01:49:26;;;;;;;;;;;;;;;8.17;100.00;99328.06;5052108;28;19925;-73
2021/06/01 01:51:56;;;;;;;;;;;;;;;8.20;100.00;99324.47;5052324;28;19925;-73
2021/06/01 01:54:24;;;;;;;;;;;;;;;8.13;100.00;99327.28;5051177;28;20023;-73
2021/06/01 01:56:54;;;;;;;;;;;;;;;8.22;100.00;99336.06;5052171;28;19944;-73
2021/06/01 01:59:24;;;;;;;;;;;;;;;8.03;100.00;99333.66;5049754;28;19928;-73
2021/06/01 02:01:52;;;;;;;;;;;;;;;7.89;100.00;99333.66;5084251;28;19924;-73
2021/06/01 02:04:22;;;;;;;;;;;;;;;7.70;100.00;99331.31;5050939;28;20278;-73
2021/06/01 02:06:52;;;;;;;;;;;;;;;7.51;100.00;99325.34;5052173;28;19925;-73
2021/06/01 02:09:19;;;;;;;;;;;;;;;7.57;100.00;99327.34;5052156;28;19951;-73
2021/06/01 02:11:48;;;;;;;;;;;;;;;7.61;100.00;99328.13;5051891;28;19929;-73
2021/06/01 02:14:15;;;;;;;;;;;;;;;7.72;100.00;99333.69;5052380;28;19924;-73
2021/06/01 02:16:42;;;;;;;;;;;;;;;7.84;100.00;99336.06;5051859;28;20441;-73
2021/06/01 02:19:11;;;;;;;;;;;;;;;7.58;100.00;99326.16;5034407;28;19925;-72
2021/06/01 02:24:10;;;;;;;;;;;;;;;7.50;100.00;99329.34;5053412;28;19932;-73
2021/06/01 02:26:47;;;;;;;;;;;;;;;7.40;100.00;99328.13;5054961;28;19929;-73
2021/06/01 02:29:19;;;;;;;;;;;;;;;7.38;100.00;99324.94;5054146;28;19925;-73
2021/06/01 02:31:46;;;;;;;;;;;;;;;7.45;100.00;99330.53;5055449;28;19932;-73
2021/06/01 02:34:14;;;;;;;;;;;;;;;7.30;100.00;99323.34;5055245;28;19929;-72
2021/06/01 02:36:41;;;;;;;;;;;;;;;7.27;100.00;99318.56;5055492;28;19925;-73
2021/06/01 02:39:09;;;;;;;;;;;;;;;7.12;100.00;99315.00;5055072;28;19928;-73
2021/06/01 02:41:35;;;;;;;;;;;;;;;7.13;100.00;99315.78;5055543;28;19925;-73
2021/06/01 02:44:03;;;;;;;;;;;;;;;7.14;100.00;99320.16;5054086;28;19932;-73
2021/06/01 02:46:31;;;;;;;;;;;;;;;7.14;100.00;99315.41;5053853;28;19951;-73
2021/06/01 02:48:58;;;;;;;;;;;;;;;7.22;100.00;99321.75;5055420;28;19932;-73
2021/06/01 02:51:26;;;;;;;;;;;;;;;7.21;100.00;99309.03;5070519;28;19935;-73
2021/06/01 02:53:54;;;;;;;;;;;;;;;7.12;100.00;99317.75;5053905;28;19928;-73
2021/06/01 02:56:21;;;;;;;;;;;;;;;7.12;100.00;99303.88;5055154;28;19983;-73
2021/06/01 02:58:49;;;;;;;;;;;;;;;6.94;100.00;99311.38;5055234;28;19956;-73
2021/06/01 03:01:17;;;;;;;;;;;;;;;6.88;100.00;99310.19;5054914;28;19925;-73
2021/06/01 03:03:49;;;;;;;;;;;;;;;6.77;100.00;99298.25;5043320;28;19956;-72
2021/06/01 03:06:17;;;;;;;;;;;;;;;6.69;100.00;99304.16;5054982;28;19932;-72
2021/06/01 03:08:44;;;;;;;;;;;;;;;6.74;100.00;99301.03;5037333;28;20007;-73
2021/06/01 03:11:14;;;;;;;;;;;;;;;6.74;100.00;99303.81;5054966;28;19925;-73
2021/06/01 03:13:42;;;;;;;;;;;;;;;6.54;100.00;99299.75;5053392;28;20327;-73
2021/06/01 03:16:10;;;;;;;;;;;;;;;6.56;100.00;99294.59;5054865;28;19936;-72
2021/06/01 03:18:37;;;;;;;;;;;;;;;6.58;100.00;99292.22;5053400;28;19925;-72
2021/06/01 03:21:04;;;;;;;;;;;;;;;6.69;100.00;99293.88;5054920;28;20295;-72
2021/06/01 03:23:31;;;;;;;;;;;;;;;6.56;100.00;99284.28;5054635;28;19929;-72
2021/06/01 03:25:58;;;;;;;;;;;;;;;6.59;100.00;99285.47;5054619;28;20276;-72
2021/06/01 03:28:26;;;;;;;;;;;;;;;6.68;100.00;99291.47;5054116;28;20292;-72
2021/06/01 03:30:53;;;;;;;;;;;;;;;6.39;100.00;99278.69;5054268;28;19944;-72
2021/06/01 03:33:20;;;;;;;;;;;;;;;6.06;100.00;99279.69;5054512;28;19995;-72
2021/06/01 03:35:47;;;;;;;;;;;;;;;5.92;100.00;99270.53;5054273;28;19924;-73
2021/06/01 03:38:15;;;;;;;;;;;;;;;6.09;100.00;99280.94;5054207;28;19925;-72
2021/06/01 03:40:42;;;;;;;;;;;;;;;6.18;100.00;99278.59;5053068;28;20323;-73
2021/06/01 03:43:09;;;;;;;;;;;;;;;6.13;100.00;99293.63;5054105;28;19932;-73
2021/06/01 03:45:36;;;;;;;;;;;;;;;6.29;100.00;99279.41;5054277;28;20379;-72
2021/06/01 03:48:04;;;;;;;;;;;;;;;6.23;100.00;99283.75;5052713;28;19999;-72
2021/06/01 03:50:31;;;;;;;;;;;;;;;6.16;100.00;99294.81;5054341;28;19925;-72
2021/06/01 03:52:58;;;;;;;;;;;;;;;6.14;100.00;99289.66;5050617;28;19974;-72
2021/06/01 03:55:26;;;;;;;;;;;;;;;6.27;100.00;99287.34;5042625;28;19924;-72
2021/06/01 03:57:53;;;;;;;;;;;;;;;6.32;100.00;99286.97;5053192;28;19936;-72
2021/06/01 04:00:22;;;;;;;;;;;;;;;6.40;100.00;99296.91;5052993;28;19925;-72
2021/06/01 04:02:49;;;;;;;;;;;;;;;6.51;100.00;99295.00;5053387;28;20322;-72
2021/06/01 04:05:19;;;;;;;;;;;;;;;6.52;100.00;99288.25;5069046;28;20380;-72
2021/06/01 04:07:46;;;;;;;;;;;;;;;6.29;100.00;99287.75;5055748;28;20175;-72
2021/06/01 04:10:14;;;;;;;;;;;;;;;6.16;100.00;99283.72;5053823;28;19976;-72
2021/06/01 04:12:43;;;;;;;;;;;;;;;5.94;100.00;99290.34;5051988;28;19924;-72
2021/06/01 04:15:10;;;;;;;;;;;;;;;6.01;100.00;99290.38;5052327;28;19929;-72
2021/06/01 04:17:37;;;;;;;;;;;;;;;5.98;100.00;99286.41;5052314;28;20015;-72
2021/06/01 04:20:05;;;;;;;;;;;;;;;6.17;100.00;99293.63;5051923;28;20379;-72
2021/06/01 04:22:33;;;;;;;;;;;;;;;6.21;100.00;99288.91;5052357;28;19925;-72
2021/06/01 04:25:00;;;;;;;;;;;;;;;6.24;100.00;99293.69;5052013;28;19925;-73
2021/06/01 04:27:28;;;;;;;;;;;;;;;6.25;100.00;99292.50;5035387;28;19932;-72
2021/06/01 04:29:55;;;;;;;;;;;;;;;6.34;100.00;99292.94;5052012;28;19932;-72
2021/06/01 04:32:21;;;;;;;;;;;;;;;6.48;100.00;99299.31;5052103;28;20300;-72
2021/06/01 04:34:49;;;;;;;;;;;;;;;6.44;100.00;99292.97;5051959;28;19924;-72
2021/06/01 04:37:16;;;;;;;;;;;;;;;6.48;100.00;99298.53;5051894;28;19931;-73
2021/06/01 04:39:46;;;;;;;;;;;;;;;6.61;100.00;99297.00;5053083;28;19924;-72
2021/06/01 04:42:13;;;;;;;;;;;;;;;6.56;100.00;99294.59;5051616;28;20023;-72
2021/06/01 04:44:40;;;;;;;;;;;;;;;6.51;100.00;99292.22;5053301;28;19932;-72
2021/06/01 04:47:07;;;;;;;;;;;;;;;6.66;100.00;99299.41;5035134;28;19925;-72
2021/06/01 04:49:35;;;;;;;;;;;;;;;6.82;100.00;99297.88;5053195;28;20341;-73
2021/06/01 04:52:02;;;;;;;;;;;;;;;6.74;100.00;99298.25;5053083;28;19934;-72
2021/06/01 04:54:30;;;;;;;;;;;;;;;6.84;100.00;99300.25;5052869;28;19979;-72
2021/06/01 04:56:57;;;;;;;;;;;;;;;6.98;100.00;99297.50;5051797;28;19932;-73
2021/06/01 04:59:24;;;;;;;;;;;;;;;7.13;100.00;99297.13;5051350;28;19924;-72
2021/06/01 05:01:52;;;;;;;;;;;;;;;7.09;100.00;99289.97;5052997;28;20376;-72
2021/06/01 05:04:19;;;;;;;;;;;;;;;7.13;100.00;99290.78;5051399;28;19932;-72
2021/06/01 05:06:46;;;;;;;;;;;;;;;7.29;100.00;99291.19;5052855;28;19925;-73
2021/06/01 05:09:13;;;;;;;;;;;;;;;7.36;100.00;99288.44;5052453;28;20051;-73
2021/06/01 05:11:40;;;;;;;;;;;;;;;7.58;100.00;99290.00;5051340;28;20307;-72
2021/06/01 05:14:11;;;;;;;;;;;;;;;7.72;100.00;99284.44;5051370;28;19977;-73
2021/06/01 05:16:38;;;;;;;;;;;;;;;7.87;100.00;99286.00;5052663;28;19928;-73
2021/06/01 05:19:06;;;;;;;;;;;;;;;8.19;100.00;99286.72;5052553;28;19924;-73
2021/06/01 05:21:33;;;;;;;;;;;;;;;8.35;100.00;99289.88;5052981;28;19929;-73
2021/06/01 05:24:01;;;;;;;;;;;;;;;8.59;100.00;99300.09;5052319;28;20339;-73
2021/06/01 05:26:28;;;;;;;;;;;;;;;8.80;100.00;99300.00;5052442;28;19987;-73
2021/06/01 05:28:55;;;;;;;;;;;;;;;8.90;100.00;99298.38;5052442;28;19939;-73
2021/06/01 05:34:10;;;;;;;;;;;;;;;9.16;100.00;99300.59;5052553;28;20265;-72
2021/06/01 05:36:37;;;;;;;;;;;;;;;9.27;100.00;99306.09;5052478;28;19925;-73
2021/06/01 05:39:06;;;;;;;;;;;;;;;9.45;100.00;99301.19;5051903;28;20410;-73
2021/06/01 05:41:33;;;;;;;;;;;;;;;9.91;100.00;99302.38;5067940;28;20287;-73
2021/06/01 05:44:00;;;;;;;;;;;;;;;11.03;100.00;99305.84;5050562;28;20360;-73
2021/06/01 05:46:28;;;;;;;;;;;;;;;12.52;100.00;99317.75;5050398;28;19933;-73
2021/06/01 05:48:55;;;;;;;;;;;;;;;13.88;100.00;99321.53;5052015;28;20421;-73
2021/06/01 05:51:30;;;;;;;;;;;;;;;14.69;100.00;99312.94;5052164;28;20449;-74
2021/06/01 05:53:57;;;;;;;;;;;;;;;15.30;100.00;99293.81;5050601;28;19925;-74
2021/06/01 05:56:25;;;;;;;;;;;;;;;15.46;100.00;99266.38;5052225;28;19928;-74
2021/06/01 05:58:52;;;;;;;;;;;;;;;15.55;100.00;99249.59;5053297;28;20019;-74
2021/06/01 06:01:18;;;;;;;;;;;;;;;15.73;100.00;99227.25;5053561;28;19975;-73
2021/06/01 06:03:45;;;;;;;;;;;;;;;16.15;100.00;99211.66;5056009;28;19929;-74
2021/06/01 06:06:13;;;;;;;;;;;;;;;16.15;100.00;99205.22;5056344;28;19928;-74
2021/06/01 06:08:40;;;;;;;;;;;;;;;16.55;100.00;99196.94;5055765;28;19971;-74
2021/06/01 06:11:07;;;;;;;;;;;;;;;16.88;100.00;99189.59;5055926;28;19925;-74
2021/06/01 06:13:35;;;;;;;;;;;;;;;17.18;100.00;99183.13;5056036;28;19968;-74
2021/06/01 06:16:03;;;;;;;;;;;;;;;17.63;100.00;99169.19;5055244;28;19932;-74
2021/06/01 06:18:30;;;;;;;;;;;;;;;17.78;100.00;99175.78;5055259;28;19992;-74
2021/06/01 06:21:01;;;;;;;;;;;;;;;18.46;100.00;99174.38;5087861;28;19928;-73
2021/06/01 06:23:29;;;;;;;;;;;;;;;18.31;100.00;99154.41;5037881;28;19929;-73
2021/06/01 06:25:56;;;;;;;;;;;;;;;18.00;100.00;99153.81;5055684;28;19952;-74
2021/06/01 06:28:23;;;;;;;;;;;;;;;17.54;100.00;99144.50;5054661;28;20444;-74
2021/06/01 06:30:50;;;;;;;;;;;;;;;17.92;100.00;99147.69;5055284;28;20361;-74
2021/06/01 06:33:17;;;;;;;;;;;;;;;18.16;100.00;99139.34;5037703;28;20011;-74
2021/06/01 06:35:46;;;;;;;;;;;;;;;17.54;100.00;99126.75;5054477;28;19929;-74
2021/06/01 06:38:13;;;;;;;;;;;;;;;17.21;100.00;99120.88;5053599;28;19925;-74
2021/06/01 06:40:40;;;;;;;;;;;;;;;17.69;100.00;99122.09;5087971;28;19924;-74
2021/06/01 06:43:06;;;;;;;;;;;;;;;18.61;100.00;99125.16;5055257;28;19925;-74
2021/06/01 06:45:36;;;;;;;;;;;;;;;19.61;100.00;99116.97;5055129;28;19929;-74
2021/06/01 06:48:06;;;;;;;;;;;;;;;20.81;100.00;99117.69;5055168;28;19962;-74
2021/06/01 06:50:34;;;;;;;;;;;;;;;21.55;100.00;99124.81;5087475;28;20000;-74
2021/06/01 06:53:01;;;;;;;;;;;;;;;22.25;100.00;99120.50;5055035;28;20019;-74
2021/06/01 06:55:29;;;;;;;;;;;;;;;22.06;100.00;99124.97;5053838;28;19925;-74
2021/06/01 06:57:56;;;;;;;;;;;;;;;21.03;100.00;99117.31;5055264;28;19925;-74
2021/06/01 07:00:24;;;;;;;;;;;;;;;21.47;100.00;99120.81;5053542;28;19935;-74
2021/06/01 07:02:51;;;;;;;;;;;;;;;21.81;100.00;99119.22;5053970;28;19974;-74
2021/06/01 07:05:19;;;;;;;;;;;;;;;22.62;100.00;99120.63;5054777;28;19932;-74
2021/06/01 07:07:48;;;;;;;;;;;;;;;23.23;100.00;99119.06;5054448;28;20387;-75
2021/06/01 07:10:16;;;;;;;;;;;;;;;23.58;100.00;99115.94;5053308;28;20379;-74
2021/06/01 07:12:43;;;;;;;;;;;;;;;23.81;100.00;99118.38;5037228;28;19925;-74
2021/06/01 07:15:22;;;;;;;;;;;;;;;23.80;100.00;99111.09;5053667;28;20269;-75
2021/06/01 07:17:55;;;;;;;;;;;;;;;24.28;100.00;99102.47;5036790;28;19924;-75
2021/06/01 07:20:22;;;;;;;;;;;;;;;24.55;100.00;99110.31;5054834;28;19928;-74
2021/06/01 07:22:49;;;;;;;;;;;;;;;24.78;100.00;99103.31;5054963;28;19970;-75
2021/06/01 07:25:17;;;;;;;;;;;;;;;25.12;100.00;99082.00;5054599;28;19924;-74
2021/06/01 07:27:44;;;;;;;;;;;;;;;25.48;100.00;99085.84;5054661;28;19999;-75
2021/06/01 07:30:12;;;;;;;;;;;;;;;25.54;100.00;99078.81;5053249;28;20457;-76
2021/06/01 07:32:39;;;;;;;;;;;;;;;25.53;100.00;99073.63;5054179;28;19925;-76
2021/06/01 07:35:07;;;;;;;;;;;;;;;25.51;100.00;99085.59;5086277;28;19932;-76
2021/06/01 07:37:34;;;;;;;;;;;;;;;26.09;100.00;99087.19;5035890;28;20299;-76
2021/06/01 07:40:01;;;;;;;;;;;;;;;26.43;100.00;99062.75;5053039;28;20007;-76
2021/06/01 07:42:28;;;;;;;;;;;;;;;26.61;100.00;99072.81;5052347;28;19931;-76
2021/06/01 07:44:58;;;;;;;;;;;;;;;26.12;100.00;99071.81;5052909;28;19963;-75
2021/06/01 07:47:25;;;;;;;;;;;;;;;25.69;100.00;99069.94;5052502;28;19929;-76
2021/06/01 07:49:53;;;;;;;;;;;;;;;26.19;100.00;99076.97;5051217;28;19947;-75
2021/06/01 07:52:21;;;;;;;;;;;;;;;25.10;100.00;99073.16;5051857;28;19983;-75
2021/06/01 07:54:48;;;;;;;;;;;;;;;25.85;100.00;99078.44;5053963;28;19931;-76
2021/06/01 07:57:15;;;;;;;;;;;;;;;23.81;100.00;99071.97;5085542;28;19932;-75
2021/06/01 07:59:43;;;;;;;;;;;;;;;25.37;100.00;99069.50;5053532;28;20414;-75
2021/06/01 08:02:10;;;;;;;;;;;;;;;25.76;100.00;99070.16;5053361;28;19924;-75
2021/06/01 08:04:37;;;;;;;;;;;;;;;23.97;100.00;99068.41;5052699;28;19932;-75
2021/06/01 08:07:08;;;;;;;;;;;;;;;23.43;100.00;99072.56;5053217;28;19936;-75
2021/06/01 08:09:35;;;;;;;;;;;;;;;22.95;100.00;99069.63;5032668;28;19944;-75
2021/06/01 08:12:04;;;;;;;;;;;;;;;21.88;100.00;99081.81;5053100;28;19925;-75
2021/06/01 08:14:31;;;;;;;;;;;;;;;23.32;100.00;99081.03;5053039;28;19931;-75
2021/06/01 08:16:59;;;;;;;;;;;;;;;24.76;100.00;99066.69;5053327;28;19972;-75
2021/06/01 08:19:32;;;;;;;;;;;;;;;25.54;100.00;99053.06;5052992;28;19931;-75
2021/06/01 08:22:03;;;;;;;;;;;;;;;23.02;100.00;99058.53;5051000;28;19932;-75
2021/06/01 08:24:33;;;;;;;;;;;;;;;22.88;100.00;99065.19;5053457;28;19949;-75
2021/06/01 08:27:00;;;;;;;;;;;;;;;23.39;100.00;99069.94;5051984;28;19928;-74
2021/06/01 08:29:27;;;;;;;;;;;;;;;23.30;100.00;99063.66;5061384;28;19925;-75
2021/06/01 08:31:55;;;;;;;;;;;;;;;24.65;100.00;99063.06;5051652;28;19937;-75
2021/06/01 08:34:22;;;;;;;;;;;;;;;25.40;100.00;99048.44;5052625;28;19925;-75
2021/06/01 08:36:49;;;;;;;;;;;;;;;25.96;100.00;99055.47;5052837;28;19924;-76
2021/06/01 08:39:23;;;;;;;;;;;;;;;26.12;100.00;99037.47;5052721;28;19936;-75
2021/06/01 08:41:50;;;;;;;;;;;;;;;25.98;100.00;99040.63;5052664;28;19933;-76
2021/06/01 08:44:18;;;;;;;;;;;;;;;24.99;100.00;99038.91;5052915;28;19925;-76
2021/06/01 08:46:49;;;;;;;;;;;;;;;24.38;100.00;99035.25;5051978;28;20518;-75
2021/06/01 08:49:17;;;;;;;;;;;;;;;23.56;100.00;99052.91;5052800;28;19924;-76
2021/06/01 08:51:45;;;;;;;;;;;;;;;23.91;100.00;99041.88;5051875;28;20022;-76
2021/06/01 08:54:12;;;;;;;;;;;;;;;23.08;100.00;99038.66;5052863;28;19978;-76
2021/06/01 08:56:39;;;;;;;;;;;;;;;23.09;100.00;99052.41;5052474;28;19932;-76
2021/06/01 08:59:08;;;;;;;;;;;;;;;24.11;100.00;99047.44;5051364;28;19925;-76
2021/06/01 09:01:35;;;;;;;;;;;;;;;24.39;100.00;99042.53;5052559;28;20023;-79
2021/06/01 09:04:08;;;;;;;;;;;;;;;24.50;100.00;99042.53;5068077;28;19927;-82
2021/06/01 09:06:44;;;;;;;;;;;;;;;23.83;100.00;99049.38;5052692;28;20023;-82
2021/06/01 09:09:38;;;;;;;;;;;;;;;24.15;100.00;99042.22;5051728;28;19936;-82
2021/06/01 09:22:42;;;;;;;;;;;;;;;24.85;100.00;99039.97;5046938;28;20295;-82
2021/06/01 09:25:22;;;;;;;;;;;;;;;24.50;100.00;99042.53;5051239;28;19979;-82
2021/06/01 09:27:51;;;;;;;;;;;;;;;24.27;100.00;99040.94;5052536;28;20002;-82
2021/06/01 09:30:38;;;;;;;;;;;;;;;23.59;100.00;99043.31;5083691;28;19925;-80
2021/06/01 09:33:09;;;;;;;;;;;;;;;23.50;100.00;99052.09;5051912;28;20384;-81
2021/06/01 09:35:48;;;;;;;;;;;;;;;23.17;100.00;99051.91;5053691;28;20296;-81
2021/06/01 09:38:20;;;;;;;;;;;;;;;22.79;100.00;99044.66;5050983;28;20454;-81
2021/06/01 09:40:47;;;;;;;;;;;;;;;22.92;100.00;99054.34;5052113;28;19925;-81
2021/06/01 09:43:16;;;;;;;;;;;;;;;23.23;100.00;99039.25;5051060;28;19929;-81
2021/06/01 09:45:43;;;;;;;;;;;;;;;23.19;100.00;99041.53;5050697;28;20445;-81
2021/06/01 09:48:11;;;;;;;;;;;;;;;23.13;100.00;99035.81;5050835;28;19924;-80
2021/06/01 09:51:00;;;;;;;;;;;;;;;23.00;100.00;99035.50;5051892;28;19924;-81
2021/06/01 09:53:31;;;;;;;;;;;;;;;23.13;100.00;99030.13;5030988;28;19932;-81
2021/06/01 09:55:59;;;;;;;;;;;;;;;23.08;100.00;99033.72;5049295;28;19932;-81
2021/06/01 09:58:34;;;;;;;;;;;;;;;22.37;100.00;99030.31;5050821;28;20363;-81
2021/06/01 10:01:05;;;;;;;;;;;;;;;22.57;100.00;99038.78;5066675;28;19987;-81
2021/06/01 10:03:45;;;;;;;;;;;;;;;22.77;100.00;99030.94;5083938;28;20018;-81
2021/06/01 10:06:12;;;;;;;;;;;;;;;22.50;100.00;99039.22;5047916;28;20287;-81
2021/06/01 10:08:44;;;;;;;;;;;;;;;22.26;100.00;99042.38;5083334;28;20011;-81
2021/06/01 10:11:12;;;;;;;;;;;;;;;22.44;100.00;99039.19;5050373;28;19929;-81
2021/06/01 10:13:39;;;;;;;;;;;;;;;22.37;100.00;99031.09;5051690;28;20307;-81
2021/06/01 10:16:08;;;;;;;;;;;;;;;22.16;100.00;99038.13;5050517;28;19924;-81
2021/06/01 10:18:36;;;;;;;;;;;;;;;22.49;100.00;99034.81;5032251;28;19929;-81
2021/06/01 10:21:05;;;;;;;;;;;;;;;22.28;100.00;99027.66;5044727;28;20023;-81
2021/06/01 10:23:35;;;;;;;;;;;;;;;22.30;100.00;99031.56;5051578;28;20037;-82
2021/06/01 10:26:04;;;;;;;;;;;;;;;22.23;100.00;99022.69;5051562;28;19960;-82
2021/06/01 10:28:34;;;;;;;;;;;;;;;22.22;100.00;99026.81;5051732;28;19925;-82
2021/06/01 10:31:02;;;;;;;;;;;;;;;22.32;100.00;99017.59;5049818;28;19925;-81
2021/06/01 10:33:39;;;;;;;;;;;;;;;22.32;100.00;99023.28;5051562;28;19947;-82
2021/06/01 10:48:40;;;;;;;;;;;;;;;22.03;100.00;99015.00;5076782;28;20345;-82
2021/06/01 10:50:37;;;;;;;;;;;;;;;22.09;100.00;99013.00;5054812;28;19939;-80
2021/06/01 10:53:04;;;;;;;;;;;;;;;22.12;100.00;99011.97;5055305;28;19925;-80
2021/06/01 10:55:50;;;;;;;;;;;;;;;22.31;100.00;99013.19;5055012;28;19940;-80
2021/06/01 10:58:27;;;;;;;;;;;;;;;22.18;100.00;99007.13;5053218;28;19924;-81
2021/06/01 11:07:11;;;;;;;;;;;;;;;21.53;100.00;99001.47;5054504;28;20036;-80
2021/06/01 11:09:44;;;;;;;;;;;;;;;21.82;100.00;99002.13;5052842;28;19931;-80
2021/06/01 11:12:18;;;;;;;;;;;;;;;22.13;100.00;98996.47;5053173;28;19932;-80
2021/06/01 11:14:46;;;;;;;;;;;;;;;22.22;100.00;99001.97;5053432;28;19960;-80
2021/06/01 11:17:14;;;;;;;;;;;;;;;22.29;100.00;98990.16;5054708;28;19932;-80
2021/06/01 11:19:53;;;;;;;;;;;;;;;21.96;100.00;98994.75;5054380;28;19990;-80
2021/06/01 11:22:25;;;;;;;;;;;;;;;21.99;100.00;99000.19;5054432;28;19932;-80
2021/06/01 11:33:28;;;;;;;;;;;;;;;21.44;100.00;98999.59;5012179;28;20329;-80
2021/06/01 11:36:00;;;;;;;;;;;;;;;21.62;100.00;99002.13;4995627;28;19956;-80
2021/06/01 11:38:43;;;;;;;;;;;;;;;21.84;100.00;99008.06;5011900;28;19984;-78
2021/06/01 11:43:57;;;;;;;;;;;;;;;21.52;100.00;98997.88;5012178;28;20447;-79
2021/06/01 11:46:29;;;;;;;;;;;;;;;21.67;100.00;98995.72;5012174;28;19976;-79
2021/06/01 11:51:29;;;;;;;;;;;;;;;21.51;100.00;98990.59;5011379;28;19926;-78
2021/06/01 11:54:09;;;;;;;;;;;;;;;21.74;100.00;98988.78;5011922;28;19933;-78
2021/06/01 12:04:51;;;;;;;;;;;;;;;21.80;100.00;98981.91;5028366;28;19932;-79
2021/06/01 12:20:52;;;;;;;;;;;;;;;21.58;100.00;98983.72;5052894;28;20441;-80
2021/06/01 12:23:25;;;;;;;;;;;;;;;21.29;100.00;98976.16;5053108;28;20315;-77
2021/06/01 12:26:00;;;;;;;;;;;;;;;21.70;100.00;98969.13;5053094;28;20054;-77
2021/06/01 12:31:17;;;;;;;;;;;;;;;22.11;100.00;98961.28;5052031;28;20403;-77
2021/06/01 12:33:56;;;;;;;;;;;;;;;21.61;100.00;98962.81;5051665;28;19925;-77
2021/06/01 12:41:52;;;;;;;;;;;;;;;21.72;100.00;98963.69;5040873;28;20055;-77
2021/06/01 12:44:19;;;;;;;;;;;;;;;21.37;100.00;98963.06;5038916;28;19975;-78
2021/06/01 13:07:30;;;;;;;;;;;;;;;21.36;100.00;98950.91;5053054;28;19948;-79
2021/06/01 13:20:10;;;;;;;;;;;;;;;21.51;100.00;98947.22;5050994;28;19928;-78
2021/06/01 13:22:49;;;;;;;;;;;;;;;21.32;100.00;98952.41;5051179;28;19935;-78
2021/06/01 13:31:30;;;;;;;;;;;;;;;21.47;100.00;98946.63;5034839;28;19924;-78
2021/06/01 13:39:08;;;;;;;;;;;;;;;21.69;100.00;98936.28;5052203;28;19925;-78
2021/06/01 13:47:14;;;;;;;;;;;;;;;22.26;100.00;98925.72;5050039;28;19933;-78
2021/06/01 13:49:48;;;;;;;;;;;;;;;21.49;100.00;98927.81;5051954;28;19929;-78
2021/06/01 15:05:25;;;;;;;;;;;;;;;21.50;100.00;98905.84;5053976;28;19932;-78
2021/06/01 17:11:12;;;;;;;;;;;;;;;21.38;100.00;98856.63;5052692;28;19931;-77
2021/06/01 17:13:48;;;;;;;;;;;;;;;21.18;100.00;98862.34;5051065;28;20066;-78
2021/06/01 17:16:39;;;;;;;;;;;;;;;21.06;100.00;98860.69;5051308;28;19928;-78
2021/06/01 17:19:25;;;;;;;;;;;;;;;21.07;100.00;98857.34;5052694;28;19929;-79
2021/06/01 17:35:28;;;;;;;;;;;;;;;20.98;100.00;98853.84;5059245;28;19929;-78
2021/06/01 17:37:55;;;;;;;;;;;;;;;20.98;100.00;98856.69;5059108;28;19931;-79
2021/06/01 17:40:23;;;;;;;;;;;;;;;20.99;100.00;98849.75;5052068;28;19925;-78
2021/06/01 17:42:51;;;;;;;;;;;;;;;20.94;100.00;98842.72;5051929;28;19932;-80
2021/06/01 17:45:22;;;;;;;;;;;;;;;20.93;100.00;98852.47;5056640;28;20384;-80
2021/06/01 17:47:54;;;;;;;;;;;;;;;20.90;100.00;98853.47;5066130;28;19948;-79
2021/06/01 17:50:24;;;;;;;;;;;;;;;20.85;100.00;98836.38;5054753;28;19944;-79
2021/06/01 17:52:57;;;;;;;;;;;;;;;20.88;100.00;98838.22;5052041;28;20355;-79
2021/06/01 17:55:25;;;;;;;;;;;;;;;20.92;100.00;98844.47;5060009;28;20222;-80
2021/06/01 17:57:53;;;;;;;;;;;;;;;20.82;100.00;98840.22;5092175;28;19924;-80
2021/06/01 18:00:21;;;;;;;;;;;;;;;20.83;100.00;98848.25;5089039;28;20403;-80
2021/06/01 18:02:49;;;;;;;;;;;;;;;20.76;100.00;98843.00;5065535;28;19998;-80
2021/06/01 18:05:17;;;;;;;;;;;;;;;20.85;100.00;98844.91;5055869;28;19939;-79
2021/06/01 18:08:11;;;;;;;;;;;;;;;20.75;100.00;98847.09;5058421;28;19950;-80
2021/06/01 18:36:34;;;;;;;;;;;;;;;20.09;100.00;98859.56;4969390;28;19954;-79
2021/06/01 19:01:27;;;;;;;;;;;;;;;19.56;100.00;98854.84;5054989;28;19990;-78
2021/06/01 19:26:20;;;;;;;;;;;;;;;18.71;100.00;98874.00;5023480;28;19925;-79
2021/06/01 19:50:21;;;;;;;;;;;;;;;17.81;100.00;98875.28;5050653;28;19924;-78
2021/06/01 19:52:50;;;;;;;;;;;;;;;17.70;100.00;98875.81;5049747;28;20026;-78
2021/06/01 19:55:19;;;;;;;;;;;;;;;17.68;100.00;98888.81;5066222;28;20577;-78
2021/06/01 19:57:48;;;;;;;;;;;;;;;17.62;100.00;98890.72;5049263;28;19971;-79
2021/06/01 20:00:16;;;;;;;;;;;;;;;17.58;100.00;98890.13;5053668;28;19928;-79
2021/06/01 20:02:45;;;;;;;;;;;;;;;17.43;100.00;98883.53;5056870;28;19931;-79
2021/06/01 20:05:17;;;;;;;;;;;;;;;17.30;100.00;98897.03;5052237;28;19974;-79